Time;durP1;ratioP1;P1;durP2;ratioP2;P2;SDS_P1;SDS_P2;PMS_P1;PMS_P2;Temp;Humidity;BMP_temperature;BMP_pressure;BME280_temperature;BME280_humidity;BME280_pressure;Samples;Min_cycle;Max_cycle;Signal;HPM_P1;HPM_P2
2022/06/07 00:00:38;;;;;;;55.75;20.63;;;;;;;;;;4972911;28;20033;-71
2022/06/07 00:03:04;;;;;;;48.03;18.63;;;;;;;;;;4972205;28;20029;-72
2022/06/07 00:05:29;;;;;;;52.55;18.40;;;;;;;;;;4973555;28;20268;-71
2022/06/07 00:07:55;;;;;;;45.03;19.20;;;;;;;;;;4962468;28;20011;-69
2022/06/07 00:10:23;;;;;;;50.45;20.33;;;;;;;;;;4968535;28;20022;-68
2022/06/07 00:12:48;;;;;;;48.35;20.00;;;;;;;;;;4964097;28;20057;-71
2022/06/07 00:15:14;;;;;;;47.15;20.48;;;;;;;;;;4973057;28;20138;-70
2022/06/07 00:17:39;;;;;;;58.08;20.48;;;;;;;;;;4967354;28;20080;-72
2022/06/07 00:20:05;;;;;;;49.72;20.63;;;;;;;;;;4963370;28;20029;-72
2022/06/07 00:22:31;;;;;;;58.67;21.65;;;;;;;;;;4967474;28;20019;-73
2022/06/07 00:24:56;;;;;;;62.53;24.02;;;;;;;;;;4986051;28;20034;-72
2022/06/07 00:27:21;;;;;;;57.50;21.38;;;;;;;;;;4964263;28;20027;-72
2022/06/07 00:29:47;;;;;;;64.50;22.67;;;;;;;;;;4964908;28;20070;-72
2022/06/07 00:32:13;;;;;;;73.35;25.45;;;;;;;;;;4969789;28;20146;-71
2022/06/07 00:34:39;;;;;;;65.57;21.60;;;;;;;;;;4965087;28;20124;-71
2022/06/07 00:37:04;;;;;;;70.93;25.15;;;;;;;;;;4971676;28;20483;-71
2022/06/07 00:39:29;;;;;;;67.80;22.92;;;;;;;;;;4964668;28;20157;-72
2022/06/07 00:41:54;;;;;;;58.43;22.30;;;;;;;;;;4979758;28;20032;-73
2022/06/07 00:44:25;;;;;;;63.15;23.55;;;;;;;;;;4971404;28;20304;-73
2022/06/07 00:46:54;;;;;;;62.15;23.08;;;;;;;;;;4972264;28;20023;-73
2022/06/07 00:49:20;;;;;;;75.57;27.35;;;;;;;;;;4969009;28;20113;-71
2022/06/07 00:51:45;;;;;;;65.55;27.10;;;;;;;;;;4971102;28;20109;-71
2022/06/07 00:54:24;;;;;;;63.30;24.42;;;;;;;;;;4974899;28;20045;-72
2022/06/07 00:56:50;;;;;;;67.40;25.60;;;;;;;;;;4975244;28;20457;-72
2022/06/07 00:59:15;;;;;;;66.22;25.25;;;;;;;;;;4974473;28;20046;-72
2022/06/07 01:01:40;;;;;;;84.13;34.90;;;;;;;;;;4971192;28;20109;-68
2022/06/07 01:04:06;;;;;;;82.40;26.73;;;;;;;;;;4973149;28;20074;-71
2022/06/07 01:11:59;;;;;;;63.30;25.50;;;;;;;;;;4961554;28;20501;-71
2022/06/07 01:14:24;;;;;;;69.13;28.07;;;;;;;;;;4961701;28;20038;-73
2022/06/07 01:16:49;;;;;;;69.90;27.90;;;;;;;;;;4962554;28;20280;-72
2022/06/07 01:19:15;;;;;;;71.93;25.27;;;;;;;;;;4964596;28;20281;-71
2022/06/07 01:21:41;;;;;;;68.63;26.75;;;;;;;;;;4969499;28;20026;-73
2022/06/07 01:24:07;;;;;;;61.70;25.80;;;;;;;;;;4978877;28;20381;-71
2022/06/07 01:26:32;;;;;;;67.45;28.67;;;;;;;;;;4973763;28;20018;-73
2022/06/07 01:28:58;;;;;;;61.70;24.90;;;;;;;;;;4960238;28;20034;-71
2022/06/07 01:31:23;;;;;;;60.63;24.77;;;;;;;;;;4966171;28;20034;-70
2022/06/07 01:33:48;;;;;;;70.20;27.80;;;;;;;;;;4962611;28;20505;-69
2022/06/07 01:36:14;;;;;;;70.25;31.42;;;;;;;;;;4965871;28;20280;-70
2022/06/07 01:38:41;;;;;;;63.40;25.65;;;;;;;;;;4968128;28;20031;-69
2022/06/07 01:43:50;;;;;;;;;;;;;;;;;;4965171;28;20044;-68
2022/06/07 01:46:15;;;;;;;68.47;28.48;;;;;;;;;;4968906;28;19914;-69
2022/06/07 01:48:41;;;;;;;64.50;27.63;;;;;;;;;;4959188;28;20037;-69
2022/06/07 01:51:07;;;;;;;65.47;26.70;;;;;;;;;;4966249;28;20031;-71
2022/06/07 01:53:33;;;;;;;53.95;24.33;;;;;;;;;;4964249;28;20401;-69
2022/06/07 01:56:05;;;;;;;58.33;24.10;;;;;;;;;;4959047;28;20035;-68
2022/06/07 01:58:31;;;;;;;61.42;25.23;;;;;;;;;;4964367;28;20029;-70
2022/06/07 02:00:56;;;;;;;66.53;27.33;;;;;;;;;;4966565;28;20027;-70
2022/06/07 02:03:21;;;;;;;55.70;25.05;;;;;;;;;;4966499;28;20074;-73
2022/06/07 02:05:53;;;;;;;63.73;26.90;;;;;;;;;;4965803;28;20046;-69
2022/06/07 02:08:18;;;;;;;63.55;23.27;;;;;;;;;;4957653;28;20329;-70
2022/06/07 02:10:44;;;;;;;52.87;24.73;;;;;;;;;;4967299;28;20026;-72
2022/06/07 02:13:09;;;;;;;51.90;22.40;;;;;;;;;;4963482;28;20284;-69
2022/06/07 02:15:34;;;;;;;59.85;23.05;;;;;;;;;;4960679;28;20291;-71
2022/06/07 02:17:59;;;;;;;54.10;24.17;;;;;;;;;;4959979;28;20026;-70
2022/06/07 02:20:25;;;;;;;57.43;25.10;;;;;;;;;;4957689;28;20224;-73
2022/06/07 02:22:50;;;;;;;57.90;27.42;;;;;;;;;;4958306;28;20322;-72
2022/06/07 02:25:15;;;;;;;55.53;22.37;;;;;;;;;;4976018;28;20413;-72
2022/06/07 02:27:41;;;;;;;59.87;29.37;;;;;;;;;;4961803;28;20274;-71
2022/06/07 02:30:07;;;;;;;55.08;26.65;;;;;;;;;;4957104;28;20327;-73
2022/06/07 02:32:33;;;;;;;48.40;23.27;;;;;;;;;;4962128;28;20075;-73
2022/06/07 02:34:59;;;;;;;44.15;23.02;;;;;;;;;;4965120;28;20534;-71
2022/06/07 02:37:25;;;;;;;45.22;20.42;;;;;;;;;;4973553;28;20023;-72
2022/06/07 02:39:50;;;;;;;47.17;22.02;;;;;;;;;;4965120;28;20035;-70
2022/06/07 02:42:16;;;;;;;40.10;19.08;;;;;;;;;;4975896;28;20026;-71
2022/06/07 02:44:42;;;;;;;41.00;19.13;;;;;;;;;;4965480;28;20121;-73
2022/06/07 02:47:07;;;;;;;40.78;17.40;;;;;;;;;;4964270;28;20026;-72
2022/06/07 02:49:32;;;;;;;41.00;18.37;;;;;;;;;;4966369;28;20031;-71
2022/06/07 02:51:57;;;;;;;34.37;16.13;;;;;;;;;;4970551;28;20354;-73
2022/06/07 02:54:23;;;;;;;33.70;17.23;;;;;;;;;;4973021;28;20272;-74
2022/06/07 02:56:48;;;;;;;32.47;15.95;;;;;;;;;;4983698;28;20329;-75
2022/06/07 02:59:13;;;;;;;37.10;17.47;;;;;;;;;;4965628;28;20434;-69
2022/06/07 03:01:38;;;;;;;38.37;16.67;;;;;;;;;;4965055;28;20280;-73
2022/06/07 03:04:03;;;;;;;26.45;14.40;;;;;;;;;;4967774;28;20283;-71
2022/06/07 03:06:30;;;;;;;31.30;14.80;;;;;;;;;;4963916;28;20118;-71
2022/06/07 03:08:55;;;;;;;36.38;15.80;;;;;;;;;;4957909;28;20037;-73
2022/06/07 03:11:20;;;;;;;33.07;20.23;;;;;;;;;;4960468;28;20027;-71
2022/06/07 03:13:46;;;;;;;36.03;17.92;;;;;;;;;;4960342;28;20273;-71
2022/06/07 03:16:11;;;;;;;30.98;15.40;;;;;;;;;;4956642;28;20390;-72
2022/06/07 03:18:36;;;;;;;40.55;16.60;;;;;;;;;;4955957;28;20082;-71
2022/06/07 03:21:02;;;;;;;33.17;16.07;;;;;;;;;;4956893;28;20109;-69
2022/06/07 03:23:27;;;;;;;31.73;15.85;;;;;;;;;;4955380;28;20280;-72
2022/06/07 03:26:01;;;;;;;27.92;15.93;;;;;;;;;;4959083;28;20118;-69
2022/06/07 03:28:26;;;;;;;30.90;14.88;;;;;;;;;;4958033;28;20031;-71
2022/06/07 03:30:51;;;;;;;27.55;14.68;;;;;;;;;;4969174;28;20054;-71
2022/06/07 03:33:16;;;;;;;27.87;14.83;;;;;;;;;;4961578;28;20355;-72
2022/06/07 03:35:41;;;;;;;28.93;13.83;;;;;;;;;;4966931;28;20771;-71
2022/06/07 03:38:07;;;;;;;30.58;14.90;;;;;;;;;;4965059;28;20279;-72
2022/06/07 03:40:44;;;;;;;31.97;14.07;;;;;;;;;;4960393;28;20038;-72
2022/06/07 03:43:10;;;;;;;28.00;14.20;;;;;;;;;;4964096;28;20335;-72
2022/06/07 03:45:35;;;;;;;33.17;15.00;;;;;;;;;;4965232;28;20026;-73
2022/06/07 03:48:00;;;;;;;32.33;14.73;;;;;;;;;;4963406;28;20476;-72
2022/06/07 03:50:26;;;;;;;30.27;14.02;;;;;;;;;;4965093;28;20268;-72
2022/06/07 03:52:51;;;;;;;23.83;14.20;;;;;;;;;;4965010;28;20138;-73
2022/06/07 03:55:17;;;;;;;27.13;13.80;;;;;;;;;;4964468;28;20015;-73
2022/06/07 03:57:42;;;;;;;29.10;15.18;;;;;;;;;;4964459;28;20046;-72
2022/06/07 04:00:07;;;;;;;26.60;13.80;;;;;;;;;;4964391;28;20507;-74
2022/06/07 04:02:33;;;;;;;22.88;13.13;;;;;;;;;;4981882;28;20034;-73
2022/06/07 04:04:58;;;;;;;24.55;13.65;;;;;;;;;;4964780;28;20381;-71
2022/06/07 04:10:08;;;;;;;;;;;;;;;;;;4963676;28;20808;-72
2022/06/07 04:12:33;;;;;;;22.05;12.45;;;;;;;;;;4983286;28;20324;-70
2022/06/07 04:14:58;;;;;;;25.97;12.47;;;;;;;;;;4961575;28;20416;-73
2022/06/07 04:17:23;;;;;;;32.90;12.77;;;;;;;;;;4964379;28;20370;-72
2022/06/07 04:19:48;;;;;;;24.37;12.90;;;;;;;;;;4964713;28;20121;-70
2022/06/07 04:22:14;;;;;;;27.13;13.90;;;;;;;;;;4972613;28;20738;-69
2022/06/07 04:24:39;;;;;;;19.60;11.43;;;;;;;;;;4974551;28;20296;-72
2022/06/07 04:27:04;;;;;;;18.92;11.45;;;;;;;;;;4969034;28;20125;-71
2022/06/07 04:29:29;;;;;;;20.75;11.43;;;;;;;;;;4968223;28;20066;-73
2022/06/07 04:31:54;;;;;;;22.07;12.90;;;;;;;;;;4968620;28;20105;-73
2022/06/07 04:34:20;;;;;;;19.08;12.30;;;;;;;;;;4988044;28;20273;-71
2022/06/07 04:36:45;;;;;;;19.07;10.47;;;;;;;;;;4967050;28;20045;-71
2022/06/07 04:39:11;;;;;;;20.65;11.10;;;;;;;;;;4967127;28;20289;-73
2022/06/07 04:41:36;;;;;;;18.13;11.75;;;;;;;;;;4969774;28;20026;-72
2022/06/07 04:44:01;;;;;;;24.92;13.50;;;;;;;;;;4964473;28;20027;-72
2022/06/07 04:46:27;;;;;;;26.83;12.53;;;;;;;;;;4964613;28;20018;-71
2022/06/07 04:48:53;;;;;;;24.45;13.32;;;;;;;;;;4963445;28;20276;-70
2022/06/07 04:51:20;;;;;;;24.27;12.32;;;;;;;;;;4964834;28;20019;-72
2022/06/07 04:53:46;;;;;;;22.02;12.90;;;;;;;;;;4965145;28;20042;-70
2022/06/07 04:56:16;;;;;;;23.48;12.75;;;;;;;;;;4967563;28;20018;-72
2022/06/07 04:58:41;;;;;;;25.45;12.73;;;;;;;;;;4963182;28;20030;-72
2022/06/07 05:01:20;;;;;;;31.48;13.00;;;;;;;;;;4966071;28;20023;-73
2022/06/07 05:03:46;;;;;;;29.13;13.48;;;;;;;;;;4966554;28;20524;-72
2022/06/07 05:06:24;;;;;;;31.45;14.18;;;;;;;;;;4969583;28;20101;-75
2022/06/07 05:08:51;;;;;;;26.67;13.50;;;;;;;;;;4961311;28;20549;-72
2022/06/07 05:11:16;;;;;;;23.27;12.85;;;;;;;;;;4964462;28;20541;-74
2022/06/07 05:13:41;;;;;;;22.40;13.07;;;;;;;;;;4964815;28;20018;-72
2022/06/07 05:16:07;;;;;;;25.90;12.83;;;;;;;;;;4969872;28;20034;-74
2022/06/07 05:18:32;;;;;;;28.58;13.63;;;;;;;;;;4964458;28;20284;-75
2022/06/07 05:20:58;;;;;;;23.13;12.65;;;;;;;;;;4966154;28;20027;-73
2022/06/07 05:23:23;;;;;;;27.27;12.07;;;;;;;;;;4967183;28;20029;-73
2022/06/07 05:25:54;;;;;;;29.30;13.35;;;;;;;;;;4964737;28;20045;-74
2022/06/07 05:28:19;;;;;;;29.20;14.30;;;;;;;;;;4964265;28;20027;-73
2022/06/07 05:30:45;;;;;;;23.60;12.85;;;;;;;;;;4963996;28;20522;-74
2022/06/07 05:33:10;;;;;;;24.17;13.57;;;;;;;;;;4968993;28;20058;-74
2022/06/07 05:35:35;;;;;;;29.27;13.55;;;;;;;;;;4965275;28;20018;-74
2022/06/07 05:38:00;;;;;;;33.93;15.43;;;;;;;;;;4972464;28;20545;-72
2022/06/07 05:40:25;;;;;;;34.03;14.50;;;;;;;;;;4961820;28;20302;-71
2022/06/07 05:42:51;;;;;;;24.73;12.73;;;;;;;;;;4961097;28;20030;-72
2022/06/07 05:45:16;;;;;;;29.83;14.07;;;;;;;;;;4962318;28;20038;-73
2022/06/07 05:47:41;;;;;;;33.35;13.45;;;;;;;;;;4964840;28;20342;-74
2022/06/07 05:50:09;;;;;;;30.00;15.95;;;;;;;;;;4966028;28;20033;-71
2022/06/07 05:52:36;;;;;;;31.52;13.88;;;;;;;;;;4959323;28;20584;-74
2022/06/07 05:55:01;;;;;;;32.88;15.63;;;;;;;;;;4967603;28;20033;-74
2022/06/07 05:57:26;;;;;;;29.85;15.05;;;;;;;;;;4961456;28;20026;-73
2022/06/07 05:59:52;;;;;;;30.63;15.67;;;;;;;;;;4962990;28;20056;-73
2022/06/07 06:02:17;;;;;;;38.53;14.93;;;;;;;;;;4963820;28;20030;-72
2022/06/07 06:04:42;;;;;;;31.43;16.27;;;;;;;;;;4964205;28;20598;-73
2022/06/07 06:07:07;;;;;;;27.70;14.48;;;;;;;;;;4967719;28;20273;-71
2022/06/07 06:12:16;;;;;;;30.00;14.13;;;;;;;;;;4962062;28;20069;-73
2022/06/07 06:14:41;;;;;;;29.52;15.38;;;;;;;;;;4961046;28;20133;-75
2022/06/07 06:17:07;;;;;;;28.17;14.27;;;;;;;;;;4962574;28;20046;-72
2022/06/07 06:19:32;;;;;;;28.17;14.67;;;;;;;;;;4962652;28;20049;-75
2022/06/07 06:21:57;;;;;;;29.33;13.90;;;;;;;;;;4961456;28;20273;-75
2022/06/07 06:24:23;;;;;;;34.30;17.40;;;;;;;;;;4959713;28;20528;-71
2022/06/07 06:26:49;;;;;;;35.13;15.10;;;;;;;;;;4961506;28;20033;-75
2022/06/07 06:29:14;;;;;;;27.08;14.65;;;;;;;;;;4963118;28;20027;-73
2022/06/07 06:31:40;;;;;;;27.23;14.98;;;;;;;;;;4961402;28;20031;-71
2022/06/07 06:34:06;;;;;;;33.50;15.93;;;;;;;;;;4965453;28;20392;-72
2022/06/07 06:36:31;;;;;;;26.10;14.13;;;;;;;;;;4963562;28;20026;-74
2022/06/07 06:38:57;;;;;;;29.85;14.95;;;;;;;;;;4962575;28;20019;-74
2022/06/07 06:41:24;;;;;;;31.25;17.13;;;;;;;;;;4963648;28;20030;-74
2022/06/07 06:43:50;;;;;;;37.55;18.63;;;;;;;;;;4970030;28;20038;-71
2022/06/07 06:46:17;;;;;;;32.30;16.58;;;;;;;;;;4963881;28;20436;-74
2022/06/07 06:48:45;;;;;;;32.53;15.90;;;;;;;;;;4969895;28;20119;-74
2022/06/07 06:51:11;;;;;;;44.50;18.00;;;;;;;;;;4965332;28;20110;-74
2022/06/07 06:53:37;;;;;;;32.53;16.98;;;;;;;;;;4980356;28;20030;-70
2022/06/07 06:56:03;;;;;;;34.78;17.33;;;;;;;;;;4976888;28;20065;-74
2022/06/07 06:58:28;;;;;;;38.88;16.05;;;;;;;;;;4970529;28;20101;-73
2022/06/07 07:00:59;;;;;;;31.23;16.95;;;;;;;;;;4966435;28;20023;-75
2022/06/07 07:03:24;;;;;;;32.97;17.38;;;;;;;;;;4960982;28;20027;-74
2022/06/07 07:05:50;;;;;;;31.67;16.97;;;;;;;;;;4963395;28;20057;-72
2022/06/07 07:08:15;;;;;;;37.17;19.30;;;;;;;;;;4966477;28;20331;-70
2022/06/07 07:10:40;;;;;;;36.13;17.87;;;;;;;;;;4956668;28;20105;-73
2022/06/07 07:13:07;;;;;;;38.70;18.23;;;;;;;;;;4965112;28;20019;-73
2022/06/07 07:15:32;;;;;;;40.80;21.13;;;;;;;;;;4978540;28;20038;-73
2022/06/07 07:17:58;;;;;;;39.45;19.95;;;;;;;;;;4965705;28;20021;-74
2022/06/07 07:20:23;;;;;;;41.60;19.13;;;;;;;;;;4958014;28;20023;-75
2022/06/07 07:22:48;;;;;;;32.17;18.63;;;;;;;;;;4957998;28;20128;-71
2022/06/07 07:25:13;;;;;;;37.63;19.50;;;;;;;;;;4971166;28;20622;-72
2022/06/07 07:27:38;;;;;;;40.63;21.57;;;;;;;;;;4963819;28;20849;-76
2022/06/07 07:30:04;;;;;;;40.43;18.77;;;;;;;;;;4965684;28;20288;-74
2022/06/07 07:32:29;;;;;;;32.13;18.73;;;;;;;;;;4972311;28;20280;-76
2022/06/07 07:34:54;;;;;;;36.57;19.07;;;;;;;;;;4964070;28;20355;-71
2022/06/07 07:37:20;;;;;;;33.13;18.38;;;;;;;;;;4964706;28;20089;-74
2022/06/07 07:39:45;;;;;;;33.97;18.65;;;;;;;;;;4961493;28;20046;-72
2022/06/07 07:42:10;;;;;;;42.57;26.47;;;;;;;;;;4976337;28;20418;-74
2022/06/07 07:44:37;;;;;;;30.27;17.90;;;;;;;;;;4965815;28;20279;-75
2022/06/07 07:47:02;;;;;;;32.58;18.35;;;;;;;;;;4967185;28;20276;-72
2022/06/07 07:49:30;;;;;;;34.75;18.80;;;;;;;;;;4970407;28;20085;-73
2022/06/07 07:51:55;;;;;;;38.78;18.33;;;;;;;;;;4960435;28;20019;-73
2022/06/07 07:54:22;;;;;;;30.52;17.35;;;;;;;;;;4964598;28;20089;-76
2022/06/07 07:56:47;;;;;;;35.70;18.67;;;;;;;;;;4962617;28;20031;-72
2022/06/07 07:59:13;;;;;;;33.27;19.10;;;;;;;;;;4974101;28;20026;-73
2022/06/07 08:01:39;;;;;;;35.42;17.98;;;;;;;;;;4957902;28;20374;-71
2022/06/07 08:04:05;;;;;;;36.20;19.13;;;;;;;;;;4963676;28;20595;-75
2022/06/07 08:06:31;;;;;;;32.65;17.92;;;;;;;;;;4966729;28;20031;-74
2022/06/07 08:08:58;;;;;;;30.73;17.95;;;;;;;;;;4967663;28;20031;-74
2022/06/07 08:11:25;;;;;;;35.28;18.38;;;;;;;;;;4961299;28;20488;-73
2022/06/07 08:13:50;;;;;;;35.60;20.02;;;;;;;;;;4971451;28;20042;-72
2022/06/07 08:16:16;;;;;;;37.80;20.07;;;;;;;;;;4966753;28;20041;-72
2022/06/07 08:18:41;;;;;;;39.50;19.90;;;;;;;;;;4975350;28;20331;-72
2022/06/07 08:21:09;;;;;;;34.58;20.02;;;;;;;;;;4965492;28;20031;-71
2022/06/07 08:23:34;;;;;;;37.92;20.80;;;;;;;;;;4979370;28;20488;-72
2022/06/07 08:26:00;;;;;;;38.10;21.83;;;;;;;;;;4973730;28;20039;-74
2022/06/07 08:28:26;;;;;;;36.80;21.67;;;;;;;;;;4973495;28;20011;-72
2022/06/07 08:30:52;;;;;;;33.33;19.65;;;;;;;;;;4968727;28;20073;-71
2022/06/07 08:38:50;;;;;;;34.33;19.95;;;;;;;;;;4965331;28;20385;-75
2022/06/07 08:41:23;;;;;;;39.57;23.00;;;;;;;;;;4964255;28;20030;-72
2022/06/07 08:43:49;;;;;;;33.70;22.30;;;;;;;;;;4967468;28;20082;-70
2022/06/07 08:46:15;;;;;;;37.23;25.30;;;;;;;;;;4970686;28;20034;-72
2022/06/07 08:48:42;;;;;;;35.50;21.75;;;;;;;;;;4962607;28;20272;-71
2022/06/07 08:51:24;;;;;;;39.67;20.83;;;;;;;;;;4983311;28;20033;-72
2022/06/07 08:53:50;;;;;;;34.50;19.75;;;;;;;;;;4964050;28;20027;-70
2022/06/07 08:56:17;;;;;;;38.55;22.23;;;;;;;;;;4960008;28;20065;-74
2022/06/07 08:58:44;;;;;;;30.63;19.58;;;;;;;;;;4964486;28;20339;-72
2022/06/07 09:01:18;;;;;;;33.80;19.67;;;;;;;;;;4960184;28;20023;-73
2022/06/07 09:04:02;;;;;;;36.03;21.02;;;;;;;;;;4961835;28;20019;-72
2022/06/07 09:06:33;;;;;;;36.65;23.15;;;;;;;;;;4961109;28;20513;-74
2022/06/07 09:08:59;;;;;;;35.70;21.40;;;;;;;;;;4965631;28;20035;-74
2022/06/07 09:14:11;;;;;;;37.88;20.75;;;;;;;;;;4967890;28;20078;-71
2022/06/07 09:16:38;;;;;;;31.20;20.80;;;;;;;;;;4962840;28;20037;-72
2022/06/07 09:19:08;;;;;;;35.10;20.58;;;;;;;;;;4965277;28;20357;-75
2022/06/07 09:21:37;;;;;;;34.83;19.75;;;;;;;;;;4965070;28;20022;-72
2022/06/07 09:24:04;;;;;;;35.85;20.77;;;;;;;;;;4965593;28;20038;-72
2022/06/07 09:26:36;;;;;;;37.13;22.92;;;;;;;;;;4979686;28;20045;-73
2022/06/07 09:29:12;;;;;;;35.40;22.05;;;;;;;;;;4963510;28;20022;-72
2022/06/07 09:31:38;;;;;;;34.40;23.48;;;;;;;;;;4960926;28;20018;-76
2022/06/07 09:34:04;;;;;;;35.05;21.98;;;;;;;;;;4964947;28;20585;-74
2022/06/07 09:36:37;;;;;;;36.33;22.38;;;;;;;;;;4969771;28;20085;-74
2022/06/07 09:39:04;;;;;;;32.95;23.25;;;;;;;;;;4959698;28;20030;-75
2022/06/07 09:41:40;;;;;;;35.10;22.35;;;;;;;;;;4959672;28;20114;-74
2022/06/07 09:44:11;;;;;;;28.85;20.05;;;;;;;;;;4962008;28;20470;-72
2022/06/07 09:46:36;;;;;;;32.55;21.25;;;;;;;;;;4962407;28;20389;-72
2022/06/07 09:49:03;;;;;;;34.40;20.20;;;;;;;;;;4968132;28;20549;-71
2022/06/07 09:51:37;;;;;;;37.00;20.10;;;;;;;;;;4959084;28;20113;-72
2022/06/07 09:54:04;;;;;;;32.75;19.52;;;;;;;;;;4978958;28;20034;-72
2022/06/07 09:56:34;;;;;;;29.73;19.67;;;;;;;;;;4966995;28;20061;-73
2022/06/07 09:58:59;;;;;;;29.15;20.63;;;;;;;;;;4962984;28;20029;-73
2022/06/07 10:01:27;;;;;;;33.57;22.50;;;;;;;;;;4962307;28;20018;-73
2022/06/07 10:04:11;;;;;;;33.20;22.70;;;;;;;;;;4961770;28;20027;-73
2022/06/07 10:06:40;;;;;;;25.35;19.20;;;;;;;;;;4959813;28;20041;-74
2022/06/07 10:09:24;;;;;;;25.80;17.95;;;;;;;;;;4962184;28;20437;-75
2022/06/07 10:11:49;;;;;;;26.15;17.33;;;;;;;;;;4963047;28;20693;-73
2022/06/07 10:14:33;;;;;;;30.55;18.30;;;;;;;;;;4961180;28;20038;-75
2022/06/07 10:16:58;;;;;;;;;;;;;;;;;;4958399;28;20027;-75
2022/06/07 10:19:34;;;;;;;28.67;18.67;;;;;;;;;;4966015;28;19925;-74
2022/06/07 10:22:02;;;;;;;25.38;17.40;;;;;;;;;;4962303;28;20541;-74
2022/06/07 10:24:36;;;;;;;27.08;19.83;;;;;;;;;;4980718;28;20524;-73
2022/06/07 10:27:22;;;;;;;24.80;17.65;;;;;;;;;;4965264;28;20030;-74
2022/06/07 10:29:54;;;;;;;29.10;20.98;;;;;;;;;;4959673;28;20027;-73
2022/06/07 10:32:22;;;;;;;26.48;17.92;;;;;;;;;;4959635;28;20554;-75
2022/06/07 10:34:54;;;;;;;27.95;20.63;;;;;;;;;;4959785;28;20026;-72
2022/06/07 10:37:35;;;;;;;30.30;17.95;;;;;;;;;;4959395;28;20069;-72
2022/06/07 10:40:12;;;;;;;24.20;17.88;;;;;;;;;;4956770;28;20030;-76
2022/06/07 10:42:47;;;;;;;26.52;20.10;;;;;;;;;;4963057;28;20105;-75
2022/06/07 10:45:12;;;;;;;27.52;18.63;;;;;;;;;;4965999;28;20478;-74
2022/06/07 10:47:46;;;;;;;22.73;17.13;;;;;;;;;;4961977;28;20030;-75
2022/06/07 10:50:20;;;;;;;21.45;15.77;;;;;;;;;;4957783;28;20277;-74
2022/06/07 10:52:52;;;;;;;23.98;17.08;;;;;;;;;;4958132;28;20026;-75
2022/06/07 10:55:22;;;;;;;22.52;17.13;;;;;;;;;;4963368;28;20377;-74
2022/06/07 10:57:47;;;;;;;21.92;16.83;;;;;;;;;;4962041;28;20034;-70
2022/06/07 11:00:17;;;;;;;24.92;16.92;;;;;;;;;;4962460;28;20389;-74
2022/06/07 11:02:52;;;;;;;23.45;16.45;;;;;;;;;;4960104;28;20014;-75
2022/06/07 11:10:59;;;;;;;20.60;15.52;;;;;;;;;;4964455;28;20046;-75
2022/06/07 11:13:29;;;;;;;22.43;14.57;;;;;;;;;;4963052;28;20027;-74
2022/06/07 11:15:59;;;;;;;20.50;15.18;;;;;;;;;;4963169;28;20484;-75
2022/06/07 11:18:25;;;;;;;21.48;15.13;;;;;;;;;;4966882;28;20039;-75
2022/06/07 11:20:57;;;;;;;19.15;14.23;;;;;;;;;;4962223;28;20042;-73
2022/06/07 11:23:29;;;;;;;19.70;15.02;;;;;;;;;;4973983;28;20137;-75
2022/06/07 11:26:00;;;;;;;19.67;14.95;;;;;;;;;;4960891;28;20088;-75
2022/06/07 11:28:28;;;;;;;17.27;13.93;;;;;;;;;;4976175;28;21374;-74
2022/06/07 11:30:59;;;;;;;25.77;16.60;;;;;;;;;;4960360;28;20559;-71
2022/06/07 11:33:32;;;;;;;20.35;15.13;;;;;;;;;;4962610;28;20038;-75
2022/06/07 11:36:12;;;;;;;19.45;15.82;;;;;;;;;;4964197;28;20037;-76
2022/06/07 11:38:54;;;;;;;18.48;14.80;;;;;;;;;;4976468;28;20474;-74
2022/06/07 11:41:37;;;;;;;18.60;15.57;;;;;;;;;;4960288;28;20110;-70
2022/06/07 11:44:10;;;;;;;18.83;14.05;;;;;;;;;;4965242;28;20089;-71
2022/06/07 11:46:35;;;;;;;14.23;12.90;;;;;;;;;;4962474;28;20145;-72
2022/06/07 11:49:22;;;;;;;20.00;14.23;;;;;;;;;;4960288;28;20071;-74
2022/06/07 11:51:54;;;;;;;22.70;14.85;;;;;;;;;;4961843;28;20023;-74
2022/06/07 11:54:22;;;;;;;15.65;13.82;;;;;;;;;;4970652;28;20027;-73
2022/06/07 11:56:48;;;;;;;17.30;13.20;;;;;;;;;;4991533;28;20096;-75
2022/06/07 11:59:16;;;;;;;16.08;11.80;;;;;;;;;;4974841;28;20098;-74
2022/06/07 12:02:01;;;;;;;17.27;11.63;;;;;;;;;;4957521;28;20061;-75
2022/06/07 12:04:29;;;;;;;15.57;10.20;;;;;;;;;;4945922;28;20177;-77
2022/06/07 12:07:00;;;;;;;18.90;10.10;;;;;;;;;;4980036;28;20023;-71
2022/06/07 12:09:26;;;;;;;13.55;10.48;;;;;;;;;;4966187;28;20259;-76
2022/06/07 12:11:51;;;;;;;11.57;10.38;;;;;;;;;;4962891;28;20098;-78
2022/06/07 12:14:29;;;;;;;14.10;12.57;;;;;;;;;;4979709;28;20470;-73
2022/06/07 12:16:59;;;;;;;16.05;13.30;;;;;;;;;;4963997;28;20033;-75
2022/06/07 12:19:24;;;;;;;12.70;11.50;;;;;;;;;;4967693;28;20034;-75
2022/06/07 12:21:57;;;;;;;13.45;12.18;;;;;;;;;;4966278;28;20402;-75
2022/06/07 12:24:23;;;;;;;16.67;11.38;;;;;;;;;;4967413;28;20054;-74
2022/06/07 12:26:50;;;;;;;15.77;14.27;;;;;;;;;;4956477;28;20641;-74
2022/06/07 12:29:16;;;;;;;13.43;12.23;;;;;;;;;;4961170;28;20050;-73
2022/06/07 12:31:43;;;;;;;10.55;9.65;;;;;;;;;;4972483;28;20105;-75
2022/06/07 12:34:16;;;;;;;10.80;9.77;;;;;;;;;;4971667;28;20038;-72
2022/06/07 12:36:41;;;;;;;13.27;11.93;;;;;;;;;;4969071;28;20101;-74
2022/06/07 12:39:11;;;;;;;11.82;10.10;;;;;;;;;;4974424;28;20501;-76
2022/06/07 12:41:43;;;;;;;12.23;10.07;;;;;;;;;;4966998;28;20062;-75
2022/06/07 12:44:18;;;;;;;13.10;10.63;;;;;;;;;;4962591;28;20433;-75
2022/06/07 12:46:46;;;;;;;12.05;10.60;;;;;;;;;;4965244;28;20022;-75
2022/06/07 12:49:18;;;;;;;16.23;11.25;;;;;;;;;;4971374;28;20027;-76
2022/06/07 12:51:52;;;;;;;12.47;11.27;;;;;;;;;;4963292;28;20422;-76
2022/06/07 12:54:18;;;;;;;13.50;10.25;;;;;;;;;;4969618;28;20030;-77
2022/06/07 12:56:44;;;;;;;18.17;10.18;;;;;;;;;;4964889;28;20030;-73
2022/06/07 12:59:29;;;;;;;14.90;10.25;;;;;;;;;;4959121;28;20027;-77
2022/06/07 13:01:55;;;;;;;13.27;11.02;;;;;;;;;;4957575;28;20445;-76
2022/06/07 13:04:26;;;;;;;12.90;10.30;;;;;;;;;;4961976;28;20027;-77
2022/06/07 13:07:02;;;;;;;12.48;9.43;;;;;;;;;;4984055;28;20396;-78
2022/06/07 13:09:28;;;;;;;13.00;9.50;;;;;;;;;;4962892;28;21236;-78
2022/06/07 13:11:54;;;;;;;16.77;10.10;;;;;;;;;;4963911;28;20110;-75
2022/06/07 13:14:19;;;;;;;14.32;9.13;;;;;;;;;;4963264;28;20019;-78
2022/06/07 13:16:46;;;;;;;12.13;9.38;;;;;;;;;;4954831;28;20027;-78
2022/06/07 13:19:14;;;;;;;15.48;9.95;;;;;;;;;;4977442;28;20031;-77
2022/06/07 13:21:41;;;;;;;13.73;10.65;;;;;;;;;;4963189;28;20515;-77
2022/06/07 13:24:18;;;;;;;16.27;10.18;;;;;;;;;;4981070;28;20109;-75
2022/06/07 13:26:44;;;;;;;17.95;10.27;;;;;;;;;;4963852;28;20015;-77
2022/06/07 13:29:16;;;;;;;15.82;10.70;;;;;;;;;;4962497;28;20575;-77
2022/06/07 13:31:41;;;;;;;17.10;10.68;;;;;;;;;;4960173;28;20034;-77
2022/06/07 13:34:16;;;;;;;17.73;11.43;;;;;;;;;;4973643;28;20056;-77
2022/06/07 13:36:41;;;;;;;16.58;10.48;;;;;;;;;;4960685;28;20062;-77
2022/06/07 13:39:19;;;;;;;16.00;10.82;;;;;;;;;;4967436;28;20042;-77
2022/06/07 13:41:46;;;;;;;11.30;9.45;;;;;;;;;;4974088;28;20053;-78
2022/06/07 13:44:11;;;;;;;12.00;9.85;;;;;;;;;;4971625;28;20118;-77
2022/06/07 13:46:38;;;;;;;14.25;10.40;;;;;;;;;;4966398;28;20097;-77
2022/06/07 13:54:31;;;;;;;12.47;8.87;;;;;;;;;;4967033;28;20454;-78
2022/06/07 13:56:57;;;;;;;11.80;9.32;;;;;;;;;;4958651;28;20277;-76
2022/06/07 13:59:22;;;;;;;12.07;9.43;;;;;;;;;;4963031;28;20035;-76
2022/06/07 14:01:50;;;;;;;16.17;9.80;;;;;;;;;;4964230;28;20019;-74
2022/06/07 14:04:23;;;;;;;15.80;10.45;;;;;;;;;;4957606;28;20106;-77
2022/06/07 14:06:48;;;;;;;15.37;10.90;;;;;;;;;;4962549;28;20023;-76
2022/06/07 14:09:21;;;;;;;14.43;10.60;;;;;;;;;;4966430;28;20027;-77
2022/06/07 14:11:47;;;;;;;13.38;10.38;;;;;;;;;;4958905;28;20045;-76
2022/06/07 14:14:12;;;;;;;17.83;12.35;;;;;;;;;;4960886;28;20049;-77
2022/06/07 14:16:40;;;;;;;14.37;11.60;;;;;;;;;;4954105;28;20027;-75
2022/06/07 14:19:06;;;;;;;14.73;10.82;;;;;;;;;;4961077;28;20292;-77
2022/06/07 14:21:32;;;;;;;15.07;11.10;;;;;;;;;;4968323;28;20038;-76
2022/06/07 14:23:57;;;;;;;16.50;11.02;;;;;;;;;;4967037;28;20027;-77
2022/06/07 14:26:23;;;;;;;17.35;11.80;;;;;;;;;;4967244;28;20030;-76
2022/06/07 14:28:48;;;;;;;15.05;10.40;;;;;;;;;;4969906;28;20026;-76
2022/06/07 14:31:25;;;;;;;14.70;10.83;;;;;;;;;;4968474;28;20362;-76
2022/06/07 14:33:50;;;;;;;13.48;10.27;;;;;;;;;;4971745;28;20041;-76
2022/06/07 14:36:16;;;;;;;17.35;10.77;;;;;;;;;;4969091;28;20022;-78
2022/06/07 14:38:42;;;;;;;15.50;10.80;;;;;;;;;;4974162;28;20555;-77
2022/06/07 14:41:07;;;;;;;13.55;11.13;;;;;;;;;;4974702;28;20130;-77
2022/06/07 14:43:32;;;;;;;16.97;12.00;;;;;;;;;;4970897;28;20030;-76
2022/06/07 14:46:01;;;;;;;13.87;11.50;;;;;;;;;;4977961;28;20304;-77
2022/06/07 14:48:26;;;;;;;18.55;13.43;;;;;;;;;;4968407;28;20011;-75
2022/06/07 14:50:51;;;;;;;16.45;11.88;;;;;;;;;;4973076;28;20077;-77
2022/06/07 14:53:16;;;;;;;14.90;13.32;;;;;;;;;;4973423;28;20034;-77